Terminal Aerodrome Forecast
Issued by NWS

Home | Current Version | Previous Version | Text Only | Print | Product List | Glossary On
Versions: 1 2 3 4 5 6 7 8 9 10 11 12 13 14 15 16 17 18 19 20 21 22 23 24
000
FTUS43 KDTX 141400 AAA
TAFPTK
TAF AMD
KPTK 141429Z 1414/1512 24009KT P6SM BKN045
      TEMPO 1414/1416 BKN010
     FM141900 25010KT P6SM BKN060 BKN080
     FM150200 30008KT P6SM BKN080=

USA.gov is the U.S. government's official web portal to all federal, state and local government web resources and services.